createdAt,value
2023-02-14T00:03:44.823Z,1.90
2023-02-14T00:08:47.193Z,1.90
2023-02-14T00:14:04.721Z,1.90
2023-02-14T00:19:06.863Z,1.90
2023-02-14T00:24:11.048Z,1.80
2023-02-14T00:29:17.127Z,1.80
2023-02-14T00:34:20.380Z,1.80
2023-02-14T00:39:22.864Z,1.70
2023-02-14T00:44:26.616Z,1.80
2023-02-14T00:49:28.767Z,1.80
2023-02-14T00:54:31.252Z,1.80
2023-02-14T00:59:35.295Z,1.80
2023-02-14T01:04:37.312Z,1.80
2023-02-14T01:09:39.052Z,1.80
2023-02-14T01:14:42.751Z,1.80
2023-02-14T01:19:45.366Z,1.60
2023-02-14T01:24:47.648Z,1.60
2023-02-14T01:29:51.440Z,1.50
2023-02-14T01:34:53.672Z,1.50
2023-02-14T01:39:56.007Z,1.50
2023-02-14T01:45:05.930Z,1.50
2023-02-14T01:50:11.268Z,1.60
2023-02-14T01:55:18.061Z,1.60
2023-02-14T02:00:40.721Z,1.60
2023-02-14T02:05:47.151Z,1.60
2023-02-14T02:10:49.420Z,1.50
2023-02-14T02:16:08.944Z,1.40
2023-02-14T02:21:46.709Z,1.30
2023-02-14T02:27:26.799Z,1.10
2023-02-14T02:32:59.625Z,1.00
2023-02-14T02:38:19.467Z,1.00
2023-02-14T02:43:36.827Z,0.90
2023-02-14T02:48:52.285Z,0.90
2023-02-14T02:54:00.419Z,0.90
2023-02-14T02:59:06.834Z,0.80
2023-02-14T03:04:29.453Z,0.80
2023-02-14T03:10:01.136Z,0.80
2023-02-14T03:15:12.876Z,0.90
2023-02-14T03:20:21.717Z,0.70
2023-02-14T03:25:34.971Z,0.80
2023-02-14T03:30:44.983Z,0.70
2023-02-14T03:35:55.481Z,0.70
2023-02-14T03:41:04.216Z,0.80
2023-02-14T03:46:11.699Z,0.70
2023-02-14T03:51:15.983Z,0.80
2023-02-14T03:56:26.908Z,0.90
2023-02-14T04:01:34.400Z,1.00
2023-02-14T04:06:37.159Z,1.00
2023-02-14T04:11:40.965Z,1.00
2023-02-14T04:16:56.803Z,0.90
2023-02-14T04:21:58.964Z,1.00
2023-02-14T04:27:11.373Z,1.00
2023-02-14T04:32:15.375Z,1.00
2023-02-14T04:37:19.486Z,1.00
2023-02-14T04:42:22.841Z,0.90
2023-02-14T04:47:24.955Z,0.90
2023-02-14T04:52:27.262Z,0.90
2023-02-14T04:57:31.131Z,0.80
2023-02-14T05:02:33.103Z,0.90
2023-02-14T05:07:35.018Z,0.90
2023-02-14T05:12:38.392Z,0.90
2023-02-14T05:17:40.916Z,0.90
2023-02-14T05:22:43.138Z,0.90
2023-02-14T05:27:46.858Z,0.70
2023-02-14T05:32:49.143Z,0.50
2023-02-14T05:37:51.434Z,0.40
2023-02-14T05:42:56.025Z,0.40
2023-02-14T05:47:58.654Z,0.50
2023-02-14T05:53:00.566Z,0.60
2023-02-14T05:58:04.451Z,0.60
2023-02-14T06:03:06.605Z,0.60
2023-02-14T06:08:09.006Z,0.60
2023-02-14T06:13:12.621Z,0.50
2023-02-14T06:18:15.269Z,0.60
2023-02-14T06:23:17.555Z,0.60
2023-02-14T06:28:21.542Z,0.50
2023-02-14T06:33:23.968Z,0.50
2023-02-14T06:38:26.248Z,0.50
2023-02-14T06:43:30.116Z,0.40
2023-02-14T06:48:32.244Z,0.50
2023-02-14T06:53:34.576Z,0.50
2023-02-14T06:58:38.363Z,0.60
2023-02-14T07:03:40.262Z,0.60
2023-02-14T07:08:42.962Z,0.60
2023-02-14T07:13:49.183Z,0.50
2023-02-14T07:18:51.888Z,0.60
2023-02-14T07:23:54.194Z,0.70
2023-02-14T07:28:58.005Z,0.70
2023-02-14T07:34:01.481Z,0.80
2023-02-14T07:39:03.493Z,0.80
2023-02-14T07:44:07.339Z,0.90
2023-02-14T07:49:09.603Z,1.00
2023-02-14T07:54:11.557Z,1.00
2023-02-14T07:59:15.325Z,1.00
2023-02-14T08:04:17.632Z,1.00
2023-02-14T08:09:25.787Z,1.00
2023-02-14T08:14:29.449Z,0.90
2023-02-14T08:19:32.051Z,1.00
2023-02-14T08:24:34.290Z,1.00
2023-02-14T08:29:37.648Z,1.20
2023-02-14T08:34:39.735Z,1.20
2023-02-14T08:39:42.225Z,1.30
2023-02-14T08:44:45.935Z,1.50
2023-02-14T08:49:48.268Z,1.60
2023-02-14T08:54:50.412Z,1.90
2023-02-14T08:59:54.306Z,2.00
2023-02-14T09:04:56.456Z,2.10
2023-02-14T09:09:58.421Z,2.10
2023-02-14T09:15:02.319Z,2.10
2023-02-14T09:20:05.313Z,2.20
2023-02-14T09:25:08.204Z,2.10
2023-02-14T09:30:13.646Z,2.10
2023-02-14T09:35:16.000Z,2.20
2023-02-14T09:40:21.374Z,2.30
2023-02-14T09:45:30.956Z,2.40
2023-02-14T09:50:38.132Z,2.50
2023-02-14T09:55:45.161Z,2.70
2023-02-14T10:00:54.566Z,2.80
2023-02-14T10:06:02.140Z,2.80
2023-02-14T10:11:07.627Z,3.00
2023-02-14T10:16:18.624Z,3.20
2023-02-14T10:21:26.871Z,3.10
2023-02-14T10:26:36.448Z,3.20
2023-02-14T10:31:45.769Z,3.50
2023-02-14T10:37:03.445Z,3.60
2023-02-14T10:42:16.259Z,3.60
2023-02-14T10:47:35.828Z,3.80
2023-02-14T10:52:41.829Z,4.10
2023-02-14T10:57:47.634Z,4.40
2023-02-14T11:02:55.184Z,4.20
2023-02-14T11:07:59.409Z,4.20
2023-02-14T11:13:01.861Z,4.20
2023-02-14T11:18:21.407Z,4.70
2023-02-14T11:23:26.240Z,5.10
2023-02-14T11:28:28.851Z,4.90
2023-02-14T11:33:38.857Z,5.20
2023-02-14T11:38:42.162Z,5.00
2023-02-14T11:43:46.042Z,4.70
2023-02-14T11:49:01.678Z,4.90
2023-02-14T11:54:06.214Z,5.10
2023-02-14T11:59:08.352Z,4.10
2023-02-14T12:04:21.129Z,4.50
2023-02-14T12:09:30.444Z,5.30
2023-02-14T12:14:34.296Z,6.10
2023-02-14T12:19:47.895Z,6.30
2023-02-14T12:24:58.131Z,6.40
2023-02-14T12:30:05.444Z,6.80
2023-02-14T12:35:17.712Z,7.10
2023-02-14T12:40:28.213Z,7.40
2023-02-14T12:45:54.573Z,7.10
2023-02-14T12:51:07.817Z,7.30
2023-02-14T12:56:19.398Z,7.70
2023-02-14T13:01:42.219Z,7.60
2023-02-14T13:06:51.213Z,7.60
2023-02-14T13:12:05.990Z,6.30
2023-02-14T13:17:16.201Z,6.40
2023-02-14T13:22:23.526Z,6.40
2023-02-14T13:27:30.422Z,6.90
2023-02-14T13:32:38.539Z,6.70
2023-02-14T13:37:45.789Z,6.80
2023-02-14T13:42:58.760Z,6.40
2023-02-14T13:48:06.128Z,6.00
2023-02-14T13:53:13.703Z,6.30
2023-02-14T13:58:21.928Z,6.00
2023-02-14T14:03:56.594Z,5.90
2023-02-14T14:09:00.353Z,6.10
2023-02-14T14:14:05.440Z,6.30
2023-02-14T14:19:32.586Z,6.70
2023-02-14T14:24:36.750Z,6.30
2023-02-14T14:29:41.450Z,5.90
2023-02-14T14:34:50.665Z,5.40
2023-02-14T14:39:55.411Z,5.60
2023-02-14T14:45:00.631Z,5.30
2023-02-14T14:50:08.311Z,5.30
2023-02-14T14:55:23.268Z,5.10
2023-02-14T15:00:28.795Z,5.20
2023-02-14T15:05:34.105Z,5.20
2023-02-14T15:10:38.273Z,5.30
2023-02-14T15:15:40.643Z,5.40
2023-02-14T15:20:43.859Z,5.40
2023-02-14T15:25:49.091Z,5.00
2023-02-14T15:30:57.944Z,4.80
2023-02-14T15:36:03.989Z,4.60
2023-02-14T15:41:10.123Z,4.50
2023-02-14T15:46:20.128Z,4.60
2023-02-14T15:51:25.121Z,4.40
2023-02-14T15:56:31.226Z,4.40
2023-02-14T16:01:35.831Z,4.30
2023-02-14T16:06:40.889Z,4.20
2023-02-14T16:11:46.038Z,4.10
2023-02-14T16:17:06.522Z,4.00
2023-02-14T16:22:10.900Z,3.80
2023-02-14T16:27:17.756Z,3.70
2023-02-14T16:32:23.813Z,3.40
2023-02-14T16:37:31.754Z,3.20
2023-02-14T16:42:37.340Z,3.00
2023-02-14T16:47:39.777Z,2.90
2023-02-14T16:52:46.863Z,2.80
2023-02-14T16:57:54.790Z,2.80
2023-02-14T17:03:04.744Z,2.70
2023-02-14T17:08:09.491Z,2.60
2023-02-14T17:13:18.118Z,2.60
2023-02-14T17:18:23.449Z,2.40
2023-02-14T17:23:27.228Z,2.20
2023-02-14T17:28:32.483Z,2.10
2023-02-14T17:33:36.193Z,2.20
2023-02-14T17:38:40.167Z,2.10
2023-02-14T17:43:44.718Z,2.10
2023-02-14T17:48:48.573Z,2.10
2023-02-14T17:53:53.137Z,2.10
2023-02-14T17:58:58.988Z,2.10
2023-02-14T18:04:03.226Z,2.00
2023-02-14T18:09:13.068Z,2.00
2023-02-14T18:14:19.925Z,2.00
2023-02-14T18:19:24.304Z,2.00
2023-02-14T18:24:30.107Z,1.80
2023-02-14T18:29:37.514Z,1.80
2023-02-14T18:34:41.739Z,1.70
2023-02-14T18:39:45.308Z,1.60
2023-02-14T18:44:50.920Z,1.50
2023-02-14T18:49:54.106Z,1.40
2023-02-14T18:55:01.073Z,1.30
2023-02-14T19:00:12.777Z,1.20
2023-02-14T19:05:17.459Z,1.00
2023-02-14T19:10:21.425Z,0.90
2023-02-14T19:15:27.065Z,0.80
2023-02-14T19:20:31.143Z,0.80
2023-02-14T19:25:35.019Z,0.80
2023-02-14T19:30:41.543Z,0.80
2023-02-14T19:35:45.026Z,0.60
2023-02-14T19:40:51.424Z,0.60
2023-02-14T19:45:57.664Z,0.50
2023-02-14T19:51:02.570Z,0.50
2023-02-14T19:56:15.652Z,0.60
2023-02-14T20:01:28.367Z,0.70
2023-02-14T20:06:33.756Z,0.80
2023-02-14T20:11:42.160Z,0.90
2023-02-14T20:16:48.306Z,0.90
2023-02-14T20:21:53.907Z,0.90
2023-02-14T20:26:59.209Z,1.00
2023-02-14T20:32:10.508Z,0.90
2023-02-14T20:37:15.486Z,0.90
2023-02-14T20:42:19.982Z,0.90
2023-02-14T20:47:27.627Z,1.00
2023-02-14T20:53:11.795Z,1.00
2023-02-14T20:58:41.631Z,0.90
2023-02-14T21:04:08.698Z,0.90
2023-02-14T21:09:20.327Z,0.80
2023-02-14T21:14:27.645Z,0.80
2023-02-14T21:19:34.684Z,0.80
2023-02-14T21:24:43.228Z,0.80
2023-02-14T21:29:47.117Z,0.70
2023-02-14T21:34:52.644Z,0.70
2023-02-14T21:39:56.219Z,0.70
2023-02-14T21:45:17.933Z,0.60
2023-02-14T21:50:33.712Z,0.60
2023-02-14T21:55:39.636Z,0.70
2023-02-14T22:00:42.273Z,0.70
2023-02-14T22:05:46.787Z,0.60
2023-02-14T22:10:49.221Z,0.60
2023-02-14T22:15:53.016Z,0.60
2023-02-14T22:21:01.992Z,0.60
2023-02-14T22:26:15.227Z,0.60
2023-02-14T22:31:19.062Z,0.60
2023-02-14T22:36:23.097Z,0.40
2023-02-14T22:41:26.910Z,0.40
2023-02-14T22:46:30.522Z,0.30
2023-02-14T22:51:35.456Z,0.20
2023-02-14T22:56:39.385Z,0.00
2023-02-14T23:01:41.861Z,0.10
2023-02-14T23:06:45.310Z,0.30
2023-02-14T23:11:48.611Z,0.30
2023-02-14T23:17:07.979Z,0.30
2023-02-14T23:22:14.521Z,0.30
2023-02-14T23:27:18.570Z,0.20
2023-02-14T23:32:21.120Z,0.20
2023-02-14T23:37:25.398Z,0.30
2023-02-14T23:42:28.377Z,0.30
2023-02-14T23:47:32.939Z,0.20
2023-02-14T23:52:41.926Z,0.10
2023-02-14T23:57:44.269Z,0.10
